sensor_id;sensor_type;location;lat;lon;timestamp;temperature;humidity
20998;DHT22;10657;51.276;6.390;2023-07-24T00:00:54;18.90;99.90
20998;DHT22;10657;51.276;6.390;2023-07-24T00:03:21;18.90;99.90
20998;DHT22;10657;51.276;6.390;2023-07-24T00:05:47;18.80;99.90
20998;DHT22;10657;51.276;6.390;2023-07-24T00:08:14;18.80;99.90
20998;DHT22;10657;51.276;6.390;2023-07-24T00:10:41;18.80;99.90
20998;DHT22;10657;51.276;6.390;2023-07-24T00:13:07;18.80;99.90
20998;DHT22;10657;51.276;6.390;2023-07-24T00:15:35;18.80;99.90
20998;DHT22;10657;51.276;6.390;2023-07-24T00:18:02;18.80;99.90
20998;DHT22;10657;51.276;6.390;2023-07-24T00:20:28;18.80;99.90
20998;DHT22;10657;51.276;6.390;2023-07-24T00:22:55;18.80;99.90
20998;DHT22;10657;51.276;6.390;2023-07-24T00:25:22;18.80;99.90
20998;DHT22;10657;51.276;6.390;2023-07-24T00:27:48;18.70;99.90
20998;DHT22;10657;51.276;6.390;2023-07-24T00:30:15;18.70;99.90
20998;DHT22;10657;51.276;6.390;2023-07-24T00:32:42;18.70;99.90
20998;DHT22;10657;51.276;6.390;2023-07-24T00:35:09;18.70;99.90
20998;DHT22;10657;51.276;6.390;2023-07-24T00:37:35;18.80;99.90
20998;DHT22;10657;51.276;6.390;2023-07-24T00:40:02;18.80;99.90
20998;DHT22;10657;51.276;6.390;2023-07-24T00:42:29;18.70;99.90
20998;DHT22;10657;51.276;6.390;2023-07-24T00:44:56;18.80;99.90
20998;DHT22;10657;51.276;6.390;2023-07-24T00:47:24;18.80;99.90
20998;DHT22;10657;51.276;6.390;2023-07-24T00:49:51;18.70;99.90
20998;DHT22;10657;51.276;6.390;2023-07-24T00:52:18;18.80;99.90
20998;DHT22;10657;51.276;6.390;2023-07-24T00:54:45;18.70;99.90
20998;DHT22;10657;51.276;6.390;2023-07-24T00:57:13;18.80;99.90
20998;DHT22;10657;51.276;6.390;2023-07-24T00:59:40;18.70;99.90
20998;DHT22;10657;51.276;6.390;2023-07-24T01:02:08;18.70;99.90
20998;DHT22;10657;51.276;6.390;2023-07-24T01:04:35;18.80;99.90
20998;DHT22;10657;51.276;6.390;2023-07-24T01:07:02;18.80;99.90
20998;DHT22;10657;51.276;6.390;2023-07-24T01:09:29;18.70;99.90
20998;DHT22;10657;51.276;6.390;2023-07-24T01:12:00;18.70;99.90
20998;DHT22;10657;51.276;6.390;2023-07-24T01:16:56;18.70;99.90
20998;DHT22;10657;51.276;6.390;2023-07-24T01:19:37;18.70;99.90
20998;DHT22;10657;51.276;6.390;2023-07-24T01:27:30;18.70;99.90
20998;DHT22;10657;51.276;6.390;2023-07-24T01:29:56;18.70;99.90
20998;DHT22;10657;51.276;6.390;2023-07-24T01:32:23;18.60;99.90
20998;DHT22;10657;51.276;6.390;2023-07-24T01:34:51;18.70;99.90
20998;DHT22;10657;51.276;6.390;2023-07-24T01:37:20;18.60;99.90
20998;DHT22;10657;51.276;6.390;2023-07-24T01:39:48;18.60;99.90
20998;DHT22;10657;51.276;6.390;2023-07-24T01:42:15;18.50;99.90
20998;DHT22;10657;51.276;6.390;2023-07-24T01:44:42;18.60;99.90
20998;DHT22;10657;51.276;6.390;2023-07-24T01:47:09;18.50;99.90
20998;DHT22;10657;51.276;6.390;2023-07-24T01:49:36;18.50;99.90
20998;DHT22;10657;51.276;6.390;2023-07-24T01:52:03;18.50;99.90
20998;DHT22;10657;51.276;6.390;2023-07-24T01:54:29;18.60;99.90
20998;DHT22;10657;51.276;6.390;2023-07-24T01:56:56;18.60;99.90
20998;DHT22;10657;51.276;6.390;2023-07-24T01:59:23;18.60;99.90
20998;DHT22;10657;51.276;6.390;2023-07-24T02:01:49;18.60;99.90
20998;DHT22;10657;51.276;6.390;2023-07-24T02:04:16;18.60;99.90
20998;DHT22;10657;51.276;6.390;2023-07-24T02:06:43;18.60;99.90
20998;DHT22;10657;51.276;6.390;2023-07-24T02:09:10;18.50;99.90
20998;DHT22;10657;51.276;6.390;2023-07-24T02:11:37;18.50;99.90
20998;DHT22;10657;51.276;6.390;2023-07-24T02:14:03;18.50;99.90
20998;DHT22;10657;51.276;6.390;2023-07-24T02:16:30;18.60;99.90
20998;DHT22;10657;51.276;6.390;2023-07-24T02:18:57;18.60;99.90
20998;DHT22;10657;51.276;6.390;2023-07-24T02:21:24;18.60;99.90
20998;DHT22;10657;51.276;6.390;2023-07-24T02:23:50;18.60;99.90
20998;DHT22;10657;51.276;6.390;2023-07-24T02:26:17;18.60;99.90
20998;DHT22;10657;51.276;6.390;2023-07-24T02:28:44;18.60;99.90
20998;DHT22;10657;51.276;6.390;2023-07-24T02:31:11;18.70;99.90
20998;DHT22;10657;51.276;6.390;2023-07-24T02:33:38;18.60;99.90
20998;DHT22;10657;51.276;6.390;2023-07-24T02:36:04;18.60;99.90
20998;DHT22;10657;51.276;6.390;2023-07-24T02:38:31;18.70;99.90
20998;DHT22;10657;51.276;6.390;2023-07-24T02:40:58;18.60;99.90
20998;DHT22;10657;51.276;6.390;2023-07-24T02:43:24;18.60;99.90
20998;DHT22;10657;51.276;6.390;2023-07-24T02:45:51;18.60;99.90
20998;DHT22;10657;51.276;6.390;2023-07-24T02:48:18;18.50;99.90
20998;DHT22;10657;51.276;6.390;2023-07-24T02:50:47;18.50;99.90
20998;DHT22;10657;51.276;6.390;2023-07-24T02:53:15;18.50;99.90
20998;DHT22;10657;51.276;6.390;2023-07-24T02:55:42;18.60;99.90
20998;DHT22;10657;51.276;6.390;2023-07-24T02:58:12;18.50;99.90
20998;DHT22;10657;51.276;6.390;2023-07-24T03:00:39;18.40;99.90
20998;DHT22;10657;51.276;6.390;2023-07-24T03:03:06;18.40;99.90
20998;DHT22;10657;51.276;6.390;2023-07-24T03:05:36;18.50;99.90
20998;DHT22;10657;51.276;6.390;2023-07-24T03:08:03;18.40;99.90
20998;DHT22;10657;51.276;6.390;2023-07-24T03:10:30;18.40;99.90
20998;DHT22;10657;51.276;6.390;2023-07-24T03:12:56;18.30;99.90
20998;DHT22;10657;51.276;6.390;2023-07-24T03:15:23;18.40;99.90
20998;DHT22;10657;51.276;6.390;2023-07-24T03:17:50;18.40;99.90
20998;DHT22;10657;51.276;6.390;2023-07-24T03:20:18;18.40;99.90
20998;DHT22;10657;51.276;6.390;2023-07-24T03:22:45;18.40;99.90
20998;DHT22;10657;51.276;6.390;2023-07-24T03:25:12;18.40;99.90
20998;DHT22;10657;51.276;6.390;2023-07-24T03:27:39;18.40;99.90
20998;DHT22;10657;51.276;6.390;2023-07-24T03:30:06;18.40;99.90
20998;DHT22;10657;51.276;6.390;2023-07-24T03:32:33;18.40;99.90
20998;DHT22;10657;51.276;6.390;2023-07-24T03:35:00;18.40;99.90
20998;DHT22;10657;51.276;6.390;2023-07-24T03:37:26;18.40;99.90
20998;DHT22;10657;51.276;6.390;2023-07-24T03:39:53;18.50;99.90
20998;DHT22;10657;51.276;6.390;2023-07-24T03:42:31;18.40;99.90
20998;DHT22;10657;51.276;6.390;2023-07-24T03:44:57;18.40;99.90
20998;DHT22;10657;51.276;6.390;2023-07-24T03:47:24;18.40;99.90
20998;DHT22;10657;51.276;6.390;2023-07-24T03:49:51;18.40;99.90
20998;DHT22;10657;51.276;6.390;2023-07-24T03:52:18;18.50;99.90
20998;DHT22;10657;51.276;6.390;2023-07-24T03:54:45;18.40;99.90
20998;DHT22;10657;51.276;6.390;2023-07-24T03:57:12;18.40;99.90
20998;DHT22;10657;51.276;6.390;2023-07-24T03:59:38;18.40;99.90
20998;DHT22;10657;51.276;6.390;2023-07-24T04:02:06;18.40;99.90
20998;DHT22;10657;51.276;6.390;2023-07-24T04:04:36;18.30;99.90
20998;DHT22;10657;51.276;6.390;2023-07-24T04:07:04;18.20;99.90
20998;DHT22;10657;51.276;6.390;2023-07-24T04:09:31;18.20;99.90
20998;DHT22;10657;51.276;6.390;2023-07-24T04:11:57;18.30;99.90
20998;DHT22;10657;51.276;6.390;2023-07-24T04:14:24;18.20;99.90
20998;DHT22;10657;51.276;6.390;2023-07-24T04:16:50;18.20;99.90
20998;DHT22;10657;51.276;6.390;2023-07-24T04:19:17;18.20;99.90
20998;DHT22;10657;51.276;6.390;2023-07-24T04:21:44;18.20;99.90
20998;DHT22;10657;51.276;6.390;2023-07-24T04:24:11;18.20;99.90
20998;DHT22;10657;51.276;6.390;2023-07-24T04:26:37;18.20;99.90
20998;DHT22;10657;51.276;6.390;2023-07-24T04:29:06;18.10;99.90
20998;DHT22;10657;51.276;6.390;2023-07-24T04:31:33;18.20;99.90
20998;DHT22;10657;51.276;6.390;2023-07-24T04:34:00;18.20;99.90
20998;DHT22;10657;51.276;6.390;2023-07-24T04:36:26;18.20;99.90
20998;DHT22;10657;51.276;6.390;2023-07-24T04:38:54;18.20;99.90
20998;DHT22;10657;51.276;6.390;2023-07-24T04:41:20;18.30;99.90
20998;DHT22;10657;51.276;6.390;2023-07-24T04:43:47;18.20;99.90
20998;DHT22;10657;51.276;6.390;2023-07-24T04:46:14;18.20;99.90
20998;DHT22;10657;51.276;6.390;2023-07-24T04:48:40;18.20;99.90
20998;DHT22;10657;51.276;6.390;2023-07-24T04:51:07;18.20;99.90
20998;DHT22;10657;51.276;6.390;2023-07-24T04:53:34;18.20;99.90
20998;DHT22;10657;51.276;6.390;2023-07-24T04:56:00;18.20;99.90
20998;DHT22;10657;51.276;6.390;2023-07-24T04:58:27;18.20;99.90
20998;DHT22;10657;51.276;6.390;2023-07-24T05:00:54;18.20;99.90
20998;DHT22;10657;51.276;6.390;2023-07-24T05:03:20;18.10;99.90
20998;DHT22;10657;51.276;6.390;2023-07-24T05:05:56;18.20;99.90
20998;DHT22;10657;51.276;6.390;2023-07-24T05:08:23;18.20;99.90
20998;DHT22;10657;51.276;6.390;2023-07-24T05:10:57;18.20;99.90
20998;DHT22;10657;51.276;6.390;2023-07-24T05:13:26;18.20;99.90
20998;DHT22;10657;51.276;6.390;2023-07-24T05:15:52;18.20;99.90
20998;DHT22;10657;51.276;6.390;2023-07-24T05:18:19;18.20;99.90
20998;DHT22;10657;51.276;6.390;2023-07-24T05:20:46;18.20;99.90
20998;DHT22;10657;51.276;6.390;2023-07-24T05:23:14;18.20;99.90
20998;DHT22;10657;51.276;6.390;2023-07-24T05:25:41;18.20;99.90
20998;DHT22;10657;51.276;6.390;2023-07-24T05:28:08;18.30;99.90
20998;DHT22;10657;51.276;6.390;2023-07-24T05:30:35;18.20;99.90
20998;DHT22;10657;51.276;6.390;2023-07-24T05:33:01;18.20;99.90
20998;DHT22;10657;51.276;6.390;2023-07-24T05:35:28;18.20;99.90
20998;DHT22;10657;51.276;6.390;2023-07-24T05:37:55;18.20;99.90
20998;DHT22;10657;51.276;6.390;2023-07-24T05:40:21;18.20;99.90
20998;DHT22;10657;51.276;6.390;2023-07-24T05:42:48;18.20;99.90
20998;DHT22;10657;51.276;6.390;2023-07-24T05:45:15;18.20;99.90
20998;DHT22;10657;51.276;6.390;2023-07-24T05:47:42;18.30;99.90
20998;DHT22;10657;51.276;6.390;2023-07-24T05:50:09;18.30;99.90
20998;DHT22;10657;51.276;6.390;2023-07-24T05:52:35;18.30;99.90
20998;DHT22;10657;51.276;6.390;2023-07-24T05:55:02;18.30;99.90
20998;DHT22;10657;51.276;6.390;2023-07-24T05:57:29;18.50;99.90
20998;DHT22;10657;51.276;6.390;2023-07-24T05:59:56;18.50;99.90
20998;DHT22;10657;51.276;6.390;2023-07-24T06:02:22;18.60;99.90
20998;DHT22;10657;51.276;6.390;2023-07-24T06:04:49;18.60;99.90
20998;DHT22;10657;51.276;6.390;2023-07-24T06:07:16;18.60;99.90
20998;DHT22;10657;51.276;6.390;2023-07-24T06:09:43;18.60;99.90
20998;DHT22;10657;51.276;6.390;2023-07-24T06:12:09;18.60;99.90
20998;DHT22;10657;51.276;6.390;2023-07-24T06:14:36;18.60;99.90
20998;DHT22;10657;51.276;6.390;2023-07-24T06:17:03;18.70;99.90
20998;DHT22;10657;51.276;6.390;2023-07-24T06:19:30;18.70;99.90
20998;DHT22;10657;51.276;6.390;2023-07-24T06:21:56;18.70;99.90
20998;DHT22;10657;51.276;6.390;2023-07-24T06:24:23;18.70;99.90
20998;DHT22;10657;51.276;6.390;2023-07-24T06:26:50;18.70;99.90
20998;DHT22;10657;51.276;6.390;2023-07-24T06:29:17;18.70;99.90
20998;DHT22;10657;51.276;6.390;2023-07-24T06:31:43;18.60;99.90
20998;DHT22;10657;51.276;6.390;2023-07-24T06:34:10;18.70;99.90
20998;DHT22;10657;51.276;6.390;2023-07-24T06:36:37;18.70;99.90
20998;DHT22;10657;51.276;6.390;2023-07-24T06:39:03;18.70;99.90
20998;DHT22;10657;51.276;6.390;2023-07-24T06:41:30;18.80;99.90
20998;DHT22;10657;51.276;6.390;2023-07-24T06:43:57;18.80;99.90
20998;DHT22;10657;51.276;6.390;2023-07-24T06:46:23;18.70;99.90
20998;DHT22;10657;51.276;6.390;2023-07-24T06:48:50;18.70;99.90
20998;DHT22;10657;51.276;6.390;2023-07-24T06:51:17;18.60;99.90
20998;DHT22;10657;51.276;6.390;2023-07-24T06:53:43;18.60;99.90
20998;DHT22;10657;51.276;6.390;2023-07-24T06:56:10;18.60;99.90
20998;DHT22;10657;51.276;6.390;2023-07-24T06:58:37;18.60;99.90
20998;DHT22;10657;51.276;6.390;2023-07-24T07:01:06;18.50;99.90
20998;DHT22;10657;51.276;6.390;2023-07-24T07:03:34;18.60;99.90
20998;DHT22;10657;51.276;6.390;2023-07-24T07:06:03;18.60;99.90
20998;DHT22;10657;51.276;6.390;2023-07-24T07:08:30;18.60;99.90
20998;DHT22;10657;51.276;6.390;2023-07-24T07:10:58;18.50;99.90
20998;DHT22;10657;51.276;6.390;2023-07-24T07:13:25;18.50;99.90
20998;DHT22;10657;51.276;6.390;2023-07-24T07:15:52;18.40;99.90
20998;DHT22;10657;51.276;6.390;2023-07-24T07:18:18;18.30;99.90
20998;DHT22;10657;51.276;6.390;2023-07-24T07:20:49;18.30;99.90
20998;DHT22;10657;51.276;6.390;2023-07-24T07:23:16;18.30;99.90
20998;DHT22;10657;51.276;6.390;2023-07-24T07:25:43;18.30;99.90
20998;DHT22;10657;51.276;6.390;2023-07-24T07:28:12;18.30;99.90
20998;DHT22;10657;51.276;6.390;2023-07-24T07:30:40;18.30;99.90
20998;DHT22;10657;51.276;6.390;2023-07-24T07:33:08;18.30;99.90
20998;DHT22;10657;51.276;6.390;2023-07-24T07:35:36;18.30;99.90
20998;DHT22;10657;51.276;6.390;2023-07-24T07:38:03;18.30;99.90
20998;DHT22;10657;51.276;6.390;2023-07-24T07:40:30;18.30;99.90
20998;DHT22;10657;51.276;6.390;2023-07-24T07:42:57;18.30;99.90
20998;DHT22;10657;51.276;6.390;2023-07-24T07:45:24;18.30;99.90
20998;DHT22;10657;51.276;6.390;2023-07-24T07:47:50;18.20;99.90
20998;DHT22;10657;51.276;6.390;2023-07-24T07:50:19;18.20;99.90
20998;DHT22;10657;51.276;6.390;2023-07-24T07:52:49;18.30;99.90
20998;DHT22;10657;51.276;6.390;2023-07-24T07:55:17;18.30;99.90
20998;DHT22;10657;51.276;6.390;2023-07-24T07:57:44;18.40;99.90
20998;DHT22;10657;51.276;6.390;2023-07-24T08:00:11;18.50;99.90
20998;DHT22;10657;51.276;6.390;2023-07-24T08:02:38;18.60;99.90
20998;DHT22;10657;51.276;6.390;2023-07-24T08:05:10;18.50;99.90
20998;DHT22;10657;51.276;6.390;2023-07-24T08:07:46;18.40;99.90
20998;DHT22;10657;51.276;6.390;2023-07-24T08:10:13;18.50;99.90
20998;DHT22;10657;51.276;6.390;2023-07-24T08:12:42;18.40;99.90
20998;DHT22;10657;51.276;6.390;2023-07-24T08:15:09;18.50;99.90
20998;DHT22;10657;51.276;6.390;2023-07-24T08:17:36;18.60;99.90
20998;DHT22;10657;51.276;6.390;2023-07-24T08:20:03;18.70;99.90
20998;DHT22;10657;51.276;6.390;2023-07-24T08:22:30;18.90;99.90
20998;DHT22;10657;51.276;6.390;2023-07-24T08:24:57;19.00;99.90
20998;DHT22;10657;51.276;6.390;2023-07-24T08:27:24;19.00;99.90
20998;DHT22;10657;51.276;6.390;2023-07-24T08:29:51;19.10;99.90
20998;DHT22;10657;51.276;6.390;2023-07-24T08:32:19;19.20;99.90
20998;DHT22;10657;51.276;6.390;2023-07-24T08:34:46;19.20;99.90
20998;DHT22;10657;51.276;6.390;2023-07-24T08:37:13;19.30;99.90
20998;DHT22;10657;51.276;6.390;2023-07-24T08:39:40;19.40;99.90
20998;DHT22;10657;51.276;6.390;2023-07-24T08:42:12;19.40;99.90
20998;DHT22;10657;51.276;6.390;2023-07-24T08:44:39;19.30;99.90
20998;DHT22;10657;51.276;6.390;2023-07-24T08:47:09;19.30;99.90
20998;DHT22;10657;51.276;6.390;2023-07-24T08:49:38;19.30;99.90
20998;DHT22;10657;51.276;6.390;2023-07-24T08:52:08;19.50;99.90
20998;DHT22;10657;51.276;6.390;2023-07-24T08:54:40;19.50;99.90
20998;DHT22;10657;51.276;6.390;2023-07-24T08:57:07;19.60;99.90
20998;DHT22;10657;51.276;6.390;2023-07-24T08:59:34;19.70;99.90
20998;DHT22;10657;51.276;6.390;2023-07-24T09:02:01;19.80;99.90
20998;DHT22;10657;51.276;6.390;2023-07-24T09:04:28;19.80;99.90
20998;DHT22;10657;51.276;6.390;2023-07-24T09:06:57;19.60;99.90
20998;DHT22;10657;51.276;6.390;2023-07-24T09:09:30;19.50;99.90
20998;DHT22;10657;51.276;6.390;2023-07-24T09:11:59;19.50;99.90
20998;DHT22;10657;51.276;6.390;2023-07-24T09:14:28;19.60;99.90
20998;DHT22;10657;51.276;6.390;2023-07-24T09:17:09;19.60;99.90
20998;DHT22;10657;51.276;6.390;2023-07-24T09:19:37;19.70;99.90
20998;DHT22;10657;51.276;6.390;2023-07-24T09:22:16;19.70;99.90
20998;DHT22;10657;51.276;6.390;2023-07-24T09:24:52;19.70;99.90
20998;DHT22;10657;51.276;6.390;2023-07-24T09:27:20;19.70;99.90
20998;DHT22;10657;51.276;6.390;2023-07-24T09:29:47;19.70;99.90
20998;DHT22;10657;51.276;6.390;2023-07-24T09:32:24;19.80;99.90
20998;DHT22;10657;51.276;6.390;2023-07-24T09:34:52;19.90;99.90
20998;DHT22;10657;51.276;6.390;2023-07-24T09:37:28;20.00;99.90
20998;DHT22;10657;51.276;6.390;2023-07-24T09:39:55;20.00;99.90
20998;DHT22;10657;51.276;6.390;2023-07-24T09:42:34;20.10;99.90
20998;DHT22;10657;51.276;6.390;2023-07-24T09:45:01;20.20;99.90
20998;DHT22;10657;51.276;6.390;2023-07-24T09:47:29;20.30;99.90
20998;DHT22;10657;51.276;6.390;2023-07-24T09:50:15;20.20;99.90
20998;DHT22;10657;51.276;6.390;2023-07-24T09:52:43;20.20;99.90
20998;DHT22;10657;51.276;6.390;2023-07-24T09:55:14;20.00;99.90
20998;DHT22;10657;51.276;6.390;2023-07-24T09:57:44;20.00;99.90
20998;DHT22;10657;51.276;6.390;2023-07-24T10:00:12;20.20;99.90
20998;DHT22;10657;51.276;6.390;2023-07-24T10:02:40;20.20;99.90
20998;DHT22;10657;51.276;6.390;2023-07-24T10:05:07;20.00;99.90
20998;DHT22;10657;51.276;6.390;2023-07-24T10:07:34;20.00;99.90
20998;DHT22;10657;51.276;6.390;2023-07-24T10:10:02;20.10;99.90
20998;DHT22;10657;51.276;6.390;2023-07-24T10:12:29;20.10;99.90
20998;DHT22;10657;51.276;6.390;2023-07-24T10:14:58;20.00;99.90
20998;DHT22;10657;51.276;6.390;2023-07-24T10:17:38;19.90;99.90
20998;DHT22;10657;51.276;6.390;2023-07-24T10:20:09;20.00;99.90
20998;DHT22;10657;51.276;6.390;2023-07-24T10:22:36;20.10;99.90
20998;DHT22;10657;51.276;6.390;2023-07-24T10:25:08;20.20;99.90
20998;DHT22;10657;51.276;6.390;2023-07-24T10:27:39;20.30;99.90
20998;DHT22;10657;51.276;6.390;2023-07-24T10:30:06;20.30;99.90
20998;DHT22;10657;51.276;6.390;2023-07-24T10:32:53;20.20;99.90
20998;DHT22;10657;51.276;6.390;2023-07-24T10:35:22;20.20;99.90
20998;DHT22;10657;51.276;6.390;2023-07-24T10:37:59;20.00;99.90
20998;DHT22;10657;51.276;6.390;2023-07-24T10:40:26;19.90;99.90
20998;DHT22;10657;51.276;6.390;2023-07-24T10:43:06;19.70;99.90
20998;DHT22;10657;51.276;6.390;2023-07-24T10:45:47;19.70;99.90
20998;DHT22;10657;51.276;6.390;2023-07-24T10:48:18;19.70;99.90
20998;DHT22;10657;51.276;6.390;2023-07-24T10:50:46;19.40;99.90
20998;DHT22;10657;51.276;6.390;2023-07-24T10:53:18;19.20;99.90
20998;DHT22;10657;51.276;6.390;2023-07-24T10:55:46;19.10;99.90
20998;DHT22;10657;51.276;6.390;2023-07-24T10:58:14;19.10;99.90
20998;DHT22;10657;51.276;6.390;2023-07-24T11:00:42;19.00;99.90
20998;DHT22;10657;51.276;6.390;2023-07-24T11:03:12;19.00;99.90
20998;DHT22;10657;51.276;6.390;2023-07-24T11:05:46;19.00;99.90
20998;DHT22;10657;51.276;6.390;2023-07-24T11:08:18;19.00;99.90
20998;DHT22;10657;51.276;6.390;2023-07-24T11:10:46;19.00;99.90
20998;DHT22;10657;51.276;6.390;2023-07-24T11:13:14;18.90;99.90
20998;DHT22;10657;51.276;6.390;2023-07-24T11:15:41;18.90;99.90
20998;DHT22;10657;51.276;6.390;2023-07-24T11:18:08;18.90;99.90
20998;DHT22;10657;51.276;6.390;2023-07-24T11:20:43;18.90;99.90
20998;DHT22;10657;51.276;6.390;2023-07-24T11:23:10;18.90;99.90
20998;DHT22;10657;51.276;6.390;2023-07-24T11:25:37;18.80;99.90
20998;DHT22;10657;51.276;6.390;2023-07-24T11:28:08;18.80;99.90
20998;DHT22;10657;51.276;6.390;2023-07-24T11:30:35;18.90;99.90
20998;DHT22;10657;51.276;6.390;2023-07-24T11:33:03;18.90;99.90
20998;DHT22;10657;51.276;6.390;2023-07-24T11:35:31;19.00;99.90
20998;DHT22;10657;51.276;6.390;2023-07-24T11:37:58;19.10;99.90
20998;DHT22;10657;51.276;6.390;2023-07-24T11:40:39;19.30;99.90
20998;DHT22;10657;51.276;6.390;2023-07-24T11:43:18;19.30;99.90
20998;DHT22;10657;51.276;6.390;2023-07-24T11:45:46;19.40;99.90
20998;DHT22;10657;51.276;6.390;2023-07-24T11:48:20;19.50;99.90
20998;DHT22;10657;51.276;6.390;2023-07-24T11:50:48;19.80;99.90
20998;DHT22;10657;51.276;6.390;2023-07-24T11:53:22;19.80;99.90
20998;DHT22;10657;51.276;6.390;2023-07-24T11:55:51;19.60;99.90
20998;DHT22;10657;51.276;6.390;2023-07-24T11:58:19;19.70;99.90
20998;DHT22;10657;51.276;6.390;2023-07-24T12:00:49;19.80;99.90
20998;DHT22;10657;51.276;6.390;2023-07-24T12:03:21;19.80;99.90
20998;DHT22;10657;51.276;6.390;2023-07-24T12:05:49;19.90;99.90
20998;DHT22;10657;51.276;6.390;2023-07-24T12:08:19;19.90;99.90
20998;DHT22;10657;51.276;6.390;2023-07-24T12:10:46;20.10;99.90
20998;DHT22;10657;51.276;6.390;2023-07-24T12:13:13;20.20;99.90
20998;DHT22;10657;51.276;6.390;2023-07-24T12:15:39;20.40;99.90
20998;DHT22;10657;51.276;6.390;2023-07-24T12:18:07;20.50;99.90
20998;DHT22;10657;51.276;6.390;2023-07-24T12:20:34;20.60;99.90
20998;DHT22;10657;51.276;6.390;2023-07-24T12:23:01;20.70;99.90
20998;DHT22;10657;51.276;6.390;2023-07-24T12:25:28;20.80;99.90
20998;DHT22;10657;51.276;6.390;2023-07-24T12:27:54;20.60;99.90
20998;DHT22;10657;51.276;6.390;2023-07-24T12:30:21;20.50;99.90
20998;DHT22;10657;51.276;6.390;2023-07-24T12:32:48;20.50;99.90
20998;DHT22;10657;51.276;6.390;2023-07-24T12:35:16;20.70;99.90
20998;DHT22;10657;51.276;6.390;2023-07-24T12:37:46;20.70;99.90
20998;DHT22;10657;51.276;6.390;2023-07-24T12:40:13;20.70;99.90
20998;DHT22;10657;51.276;6.390;2023-07-24T12:42:40;20.70;99.90
20998;DHT22;10657;51.276;6.390;2023-07-24T12:45:07;20.70;99.90
20998;DHT22;10657;51.276;6.390;2023-07-24T12:47:34;20.90;99.90
20998;DHT22;10657;51.276;6.390;2023-07-24T12:50:01;20.90;99.90
20998;DHT22;10657;51.276;6.390;2023-07-24T12:52:29;21.30;99.90
20998;DHT22;10657;51.276;6.390;2023-07-24T12:54:56;21.40;99.90
20998;DHT22;10657;51.276;6.390;2023-07-24T12:57:28;21.40;99.90
20998;DHT22;10657;51.276;6.390;2023-07-24T12:59:55;21.50;99.90
20998;DHT22;10657;51.276;6.390;2023-07-24T13:02:22;21.50;99.90
20998;DHT22;10657;51.276;6.390;2023-07-24T13:04:49;21.90;99.90
20998;DHT22;10657;51.276;6.390;2023-07-24T13:07:16;21.80;99.90
20998;DHT22;10657;51.276;6.390;2023-07-24T13:09:42;21.80;99.90
20998;DHT22;10657;51.276;6.390;2023-07-24T13:12:09;21.70;99.90
20998;DHT22;10657;51.276;6.390;2023-07-24T13:14:36;21.40;99.90
20998;DHT22;10657;51.276;6.390;2023-07-24T13:17:07;21.30;99.90
20998;DHT22;10657;51.276;6.390;2023-07-24T13:19:34;21.40;99.90
20998;DHT22;10657;51.276;6.390;2023-07-24T13:22:01;21.50;99.90
20998;DHT22;10657;51.276;6.390;2023-07-24T13:24:27;21.70;99.90
20998;DHT22;10657;51.276;6.390;2023-07-24T13:26:54;21.80;99.90
20998;DHT22;10657;51.276;6.390;2023-07-24T13:29:21;22.10;99.90
20998;DHT22;10657;51.276;6.390;2023-07-24T13:31:51;22.50;99.90
20998;DHT22;10657;51.276;6.390;2023-07-24T13:34:23;22.50;99.90
20998;DHT22;10657;51.276;6.390;2023-07-24T13:36:50;21.90;99.90
20998;DHT22;10657;51.276;6.390;2023-07-24T13:39:16;21.80;99.90
20998;DHT22;10657;51.276;6.390;2023-07-24T13:41:43;22.10;99.90
20998;DHT22;10657;51.276;6.390;2023-07-24T13:44:10;21.90;99.90
20998;DHT22;10657;51.276;6.390;2023-07-24T13:46:37;21.80;99.90
20998;DHT22;10657;51.276;6.390;2023-07-24T13:49:06;21.60;99.90
20998;DHT22;10657;51.276;6.390;2023-07-24T13:51:33;21.50;99.90
20998;DHT22;10657;51.276;6.390;2023-07-24T13:54:00;21.30;99.90
20998;DHT22;10657;51.276;6.390;2023-07-24T13:56:28;21.20;99.90
20998;DHT22;10657;51.276;6.390;2023-07-24T13:58:57;21.00;99.90
20998;DHT22;10657;51.276;6.390;2023-07-24T14:01:24;21.00;99.90
20998;DHT22;10657;51.276;6.390;2023-07-24T14:03:51;21.00;99.90
20998;DHT22;10657;51.276;6.390;2023-07-24T14:06:17;21.00;99.90
20998;DHT22;10657;51.276;6.390;2023-07-24T14:08:44;21.10;99.90
20998;DHT22;10657;51.276;6.390;2023-07-24T14:11:11;21.30;99.90
20998;DHT22;10657;51.276;6.390;2023-07-24T14:13:37;21.40;99.90
20998;DHT22;10657;51.276;6.390;2023-07-24T14:16:04;21.50;99.90
20998;DHT22;10657;51.276;6.390;2023-07-24T14:18:31;21.60;99.90
20998;DHT22;10657;51.276;6.390;2023-07-24T14:20:58;21.50;99.90
20998;DHT22;10657;51.276;6.390;2023-07-24T14:23:26;21.60;99.90
20998;DHT22;10657;51.276;6.390;2023-07-24T14:25:52;22.00;99.90
20998;DHT22;10657;51.276;6.390;2023-07-24T14:28:19;22.20;99.90
20998;DHT22;10657;51.276;6.390;2023-07-24T14:30:46;22.20;99.90
20998;DHT22;10657;51.276;6.390;2023-07-24T14:33:12;22.60;99.90
20998;DHT22;10657;51.276;6.390;2023-07-24T14:35:39;22.30;99.90
20998;DHT22;10657;51.276;6.390;2023-07-24T14:38:06;22.50;99.90
20998;DHT22;10657;51.276;6.390;2023-07-24T14:40:32;22.80;99.90
20998;DHT22;10657;51.276;6.390;2023-07-24T14:42:59;23.00;99.90
20998;DHT22;10657;51.276;6.390;2023-07-24T14:45:26;22.90;99.90
20998;DHT22;10657;51.276;6.390;2023-07-24T14:47:52;22.90;99.90
20998;DHT22;10657;51.276;6.390;2023-07-24T14:50:19;23.20;99.90
20998;DHT22;10657;51.276;6.390;2023-07-24T14:52:46;23.10;99.90
20998;DHT22;10657;51.276;6.390;2023-07-24T14:55:14;23.20;99.90
20998;DHT22;10657;51.276;6.390;2023-07-24T14:57:41;22.90;99.90
20998;DHT22;10657;51.276;6.390;2023-07-24T15:00:08;23.10;99.90
20998;DHT22;10657;51.276;6.390;2023-07-24T15:02:35;23.00;99.90
20998;DHT22;10657;51.276;6.390;2023-07-24T15:05:01;22.80;99.90
20998;DHT22;10657;51.276;6.390;2023-07-24T15:07:28;23.00;99.90
20998;DHT22;10657;51.276;6.390;2023-07-24T15:09:55;23.10;99.90
20998;DHT22;10657;51.276;6.390;2023-07-24T15:12:22;23.00;99.90
20998;DHT22;10657;51.276;6.390;2023-07-24T15:14:49;22.70;99.90
20998;DHT22;10657;51.276;6.390;2023-07-24T15:17:16;22.70;99.90
20998;DHT22;10657;51.276;6.390;2023-07-24T15:19:44;22.30;99.90
20998;DHT22;10657;51.276;6.390;2023-07-24T15:22:11;22.40;99.90
20998;DHT22;10657;51.276;6.390;2023-07-24T15:24:39;22.20;99.90
20998;DHT22;10657;51.276;6.390;2023-07-24T15:27:06;22.30;99.90
20998;DHT22;10657;51.276;6.390;2023-07-24T15:29:36;22.40;99.90
20998;DHT22;10657;51.276;6.390;2023-07-24T15:32:04;22.50;99.90
20998;DHT22;10657;51.276;6.390;2023-07-24T15:34:31;21.90;99.90
20998;DHT22;10657;51.276;6.390;2023-07-24T15:36:58;21.80;99.90
20998;DHT22;10657;51.276;6.390;2023-07-24T15:39:25;21.40;99.90
20998;DHT22;10657;51.276;6.390;2023-07-24T15:41:51;21.40;99.90